AXI9644 KATL-KIND
Flight info
| Callsign | AXI9644 |
|---|---|
| Flight time | 1h 9m |
| Altitude | 40000 |
| Route | VARNM2 RESPE IIU HAGAL GIIBS4 |
| Aircraft | B738/M-SDE2E3FGHIJ7RWXY/LB1 |
Departure
| Time | 2026-05-07 10:36 |
|---|---|
| Airport | Hartsfield Jackson Atlanta International Airport (KATL) |
Arrival
| Time | 2026-05-07 11:45 |
|---|---|
| Airport | Indianapolis International Airport (KIND) |
| Time | Latitude | Longitude | Altitude | Speed | Heading |
|---|---|---|---|---|---|
| 2026-05-07 10:00 | 33.65249 | -84.41098 | 1005 ft | 0 kts | 81° |
| 2026-05-07 10:21 | 33.65247 | -84.41113 | 1005 ft | 4 kts | 81° |
| 2026-05-07 10:21 | 33.65243 | -84.41145 | 1005 ft | 4 kts | 81° |
| 2026-05-07 10:21 | 33.65238 | -84.41177 | 1005 ft | 4 kts | 81° |
| 2026-05-07 10:21 | 33.65235 | -84.41204 | 1005 ft | 1 kts | 81° |
| 2026-05-07 10:22 | 33.65235 | -84.41205 | 1005 ft | 0 kts | 81° |
| 2026-05-07 10:27 | 33.65236 | -84.41202 | 1005 ft | 2 kts | 72° |
| 2026-05-07 10:27 | 33.65255 | -84.41199 | 1005 ft | 4 kts | 325° |
| 2026-05-07 10:27 | 33.65241 | -84.41244 | 1005 ft | 8 kts | 240° |
| 2026-05-07 10:27 | 33.65229 | -84.41317 | 1005 ft | 9 kts | 259° |
| 2026-05-07 10:28 | 33.65197 | -84.41355 | 1005 ft | 6 kts | 193° |
| 2026-05-07 10:28 | 33.65163 | -84.41350 | 1005 ft | 4 kts | 165° |
| 2026-05-07 10:28 | 33.65145 | -84.41341 | 1005 ft | 3 kts | 148° |
| 2026-05-07 10:28 | 33.65132 | -84.41326 | 1005 ft | 3 kts | 128° |
| 2026-05-07 10:29 | 33.65125 | -84.41307 | 1005 ft | 2 kts | 105° |
| 2026-05-07 10:29 | 33.65123 | -84.41285 | 1005 ft | 3 kts | 96° |
| 2026-05-07 10:29 | 33.65120 | -84.41255 | 1005 ft | 4 kts | 94° |
| 2026-05-07 10:30 | 33.65121 | -84.41163 | 1005 ft | 7 kts | 90° |
| 2026-05-07 10:30 | 33.65121 | -84.41095 | 1005 ft | 9 kts | 90° |
| 2026-05-07 10:30 | 33.65120 | -84.41034 | 1005 ft | 1 kts | 95° |
| 2026-05-07 10:30 | 33.65119 | -84.41027 | 1005 ft | 1 kts | 96° |
| 2026-05-07 10:31 | 33.65118 | -84.41020 | 1005 ft | 1 kts | 101° |
| 2026-05-07 10:31 | 33.65113 | -84.41003 | 1005 ft | 3 kts | 114° |
| 2026-05-07 10:31 | 33.65094 | -84.40977 | 1006 ft | 5 kts | 144° |
| 2026-05-07 10:31 | 33.65056 | -84.40964 | 1006 ft | 7 kts | 174° |
| 2026-05-07 10:32 | 33.65008 | -84.40964 | 1006 ft | 7 kts | 181° |
| 2026-05-07 10:32 | 33.64960 | -84.40965 | 1005 ft | 7 kts | 179° |
| 2026-05-07 10:32 | 33.64914 | -84.40962 | 1005 ft | 7 kts | 175° |
| 2026-05-07 10:32 | 33.64870 | -84.40948 | 1005 ft | 7 kts | 150° |
| 2026-05-07 10:33 | 33.64848 | -84.40903 | 1005 ft | 6 kts | 98° |
| 2026-05-07 10:33 | 33.64847 | -84.40850 | 1005 ft | 6 kts | 91° |
| 2026-05-07 10:33 | 33.64846 | -84.40815 | 1005 ft | 6 kts | 91° |
| 2026-05-07 10:33 | 33.64846 | -84.40764 | 1005 ft | 6 kts | 89° |
| 2026-05-07 10:34 | 33.64846 | -84.40714 | 1005 ft | 6 kts | 89° |
| 2026-05-07 10:34 | 33.64847 | -84.40660 | 1005 ft | 7 kts | 90° |
| 2026-05-07 10:34 | 33.64837 | -84.40601 | 1005 ft | 7 kts | 116° |
| 2026-05-07 10:34 | 33.64798 | -84.40570 | 1005 ft | 7 kts | 169° |
| 2026-05-07 10:35 | 33.64750 | -84.40568 | 1004 ft | 7 kts | 179° |
| 2026-05-07 10:35 | 33.64700 | -84.40575 | 1003 ft | 7 kts | 210° |
| 2026-05-07 10:35 | 33.64680 | -84.40640 | 1003 ft | 13 kts | 269° |
| 2026-05-07 10:35 | 33.64680 | -84.41042 | 1006 ft | 90 kts | 270° |
| 2026-05-07 10:36 | 33.64667 | -84.42098 | 1016 ft | 160 kts | 269° |
| 2026-05-07 10:36 | 33.64716 | -84.43607 | 1373 ft | 196 kts | 267° |
| 2026-05-07 10:36 | 33.64703 | -84.45234 | 2518 ft | 182 kts | 270° |
| 2026-05-07 10:36 | 33.64838 | -84.46685 | 3811 ft | 179 kts | 289° |
| 2026-05-07 10:37 | 33.65404 | -84.48067 | 4655 ft | 194 kts | 290° |
| 2026-05-07 10:37 | 33.66020 | -84.49655 | 5001 ft | 231 kts | 290° |
| 2026-05-07 10:37 | 33.66726 | -84.51486 | 5842 ft | 241 kts | 290° |
| 2026-05-07 10:37 | 33.67422 | -84.53285 | 6944 ft | 241 kts | 290° |
| 2026-05-07 10:38 | 33.68125 | -84.55112 | 8093 ft | 242 kts | 291° |
| 2026-05-07 10:38 | 33.69176 | -84.56738 | 9205 ft | 258 kts | 313° |
| 2026-05-07 10:38 | 33.70777 | -84.57844 | 10317 ft | 275 kts | 332° |
| 2026-05-07 10:38 | 33.72722 | -84.58272 | 11307 ft | 295 kts | 348° |
| 2026-05-07 10:39 | 33.74814 | -84.58264 | 12310 ft | 305 kts | 352° |
| 2026-05-07 10:39 | 33.76947 | -84.58184 | 13379 ft | 309 kts | 352° |
| 2026-05-07 10:39 | 33.79106 | -84.58122 | 14418 ft | 312 kts | 351° |
| 2026-05-07 10:39 | 33.81290 | -84.58081 | 15411 ft | 317 kts | 350° |
| 2026-05-07 10:40 | 33.83569 | -84.58090 | 15972 ft | 340 kts | 349° |
| 2026-05-07 10:40 | 33.85997 | -84.58141 | 16496 ft | 357 kts | 348° |
| 2026-05-07 10:40 | 33.88508 | -84.58218 | 17394 ft | 363 kts | 348° |
| 2026-05-07 10:40 | 33.91052 | -84.58299 | 18387 ft | 367 kts | 347° |
| 2026-05-07 10:41 | 33.93616 | -84.58381 | 19205 ft | 372 kts | 347° |
| 2026-05-07 10:41 | 33.96240 | -84.58465 | 20048 ft | 379 kts | 347° |
| 2026-05-07 10:41 | 33.98896 | -84.58548 | 20839 ft | 385 kts | 347° |
| 2026-05-07 10:41 | 34.01600 | -84.58631 | 21621 ft | 391 kts | 348° |
| 2026-05-07 10:42 | 34.04341 | -84.58714 | 22416 ft | 397 kts | 348° |
| 2026-05-07 10:42 | 34.07126 | -84.58797 | 23171 ft | 403 kts | 348° |
| 2026-05-07 10:42 | 34.09942 | -84.58881 | 23856 ft | 409 kts | 348° |
| 2026-05-07 10:42 | 34.12825 | -84.58968 | 24396 ft | 417 kts | 347° |
| 2026-05-07 10:43 | 34.15750 | -84.59055 | 24995 ft | 423 kts | 347° |
| 2026-05-07 10:43 | 34.18698 | -84.59140 | 25657 ft | 426 kts | 347° |
| 2026-05-07 10:43 | 34.21664 | -84.59226 | 26348 ft | 429 kts | 347° |
| 2026-05-07 10:43 | 34.24671 | -84.59316 | 26946 ft | 434 kts | 347° |
| 2026-05-07 10:44 | 34.27712 | -84.59411 | 27537 ft | 439 kts | 347° |
| 2026-05-07 10:44 | 34.30725 | -84.59761 | 28109 ft | 432 kts | 339° |
| 2026-05-07 10:44 | 34.33677 | -84.60428 | 28692 ft | 432 kts | 336° |
| 2026-05-07 10:44 | 34.36619 | -84.61209 | 29296 ft | 435 kts | 336° |
| 2026-05-07 10:45 | 34.39593 | -84.62029 | 29662 ft | 444 kts | 336° |
| 2026-05-07 10:45 | 34.42633 | -84.62856 | 30113 ft | 450 kts | 337° |
| 2026-05-07 10:45 | 34.45696 | -84.63660 | 30580 ft | 453 kts | 337° |
| 2026-05-07 10:45 | 34.48788 | -84.64447 | 31082 ft | 455 kts | 337° |
| 2026-05-07 10:46 | 34.51863 | -84.65215 | 31512 ft | 459 kts | 337° |
| 2026-05-07 10:46 | 34.55003 | -84.65991 | 31915 ft | 462 kts | 337° |
| 2026-05-07 10:46 | 34.58165 | -84.66770 | 32303 ft | 466 kts | 337° |
| 2026-05-07 10:46 | 34.61345 | -84.67550 | 32810 ft | 466 kts | 336° |
| 2026-05-07 10:47 | 34.64501 | -84.68318 | 33651 ft | 459 kts | 335° |
| 2026-05-07 10:47 | 34.67601 | -84.69082 | 34319 ft | 453 kts | 335° |
| 2026-05-07 10:47 | 34.70716 | -84.69776 | 34701 ft | 455 kts | 334° |
| 2026-05-07 10:47 | 34.73860 | -84.70547 | 35028 ft | 455 kts | 334° |
| 2026-05-07 10:48 | 34.76911 | -84.71328 | 35431 ft | 454 kts | 333° |
| 2026-05-07 10:48 | 34.79993 | -84.72115 | 35966 ft | 451 kts | 334° |
| 2026-05-07 10:48 | 34.83049 | -84.72887 | 36497 ft | 447 kts | 334° |
| 2026-05-07 10:48 | 34.86087 | -84.73648 | 36967 ft | 445 kts | 333° |
| 2026-05-07 10:49 | 34.89117 | -84.74406 | 37417 ft | 444 kts | 333° |
| 2026-05-07 10:49 | 34.92141 | -84.75162 | 37812 ft | 443 kts | 333° |
| 2026-05-07 10:49 | 34.95154 | -84.75913 | 38227 ft | 442 kts | 333° |
| 2026-05-07 10:49 | 34.98163 | -84.76662 | 38652 ft | 440 kts | 333° |
| 2026-05-07 10:50 | 35.01148 | -84.77405 | 38977 ft | 438 kts | 333° |
| 2026-05-07 10:50 | 35.04142 | -84.78153 | 39274 ft | 438 kts | 333° |
| 2026-05-07 10:50 | 35.07120 | -84.78898 | 39549 ft | 437 kts | 333° |
| 2026-05-07 10:50 | 35.10098 | -84.79644 | 39849 ft | 437 kts | 333° |
| 2026-05-07 10:51 | 35.16101 | -84.81156 | 39984 ft | 443 kts | 332° |
| 2026-05-07 10:51 | 35.22129 | -84.82661 | 39945 ft | 438 kts | 332° |
| 2026-05-07 10:52 | 35.28063 | -84.84138 | 39945 ft | 434 kts | 332° |
| 2026-05-07 10:52 | 35.33977 | -84.85630 | 39945 ft | 434 kts | 332° |
| 2026-05-07 10:53 | 35.39889 | -84.87122 | 40002 ft | 434 kts | 332° |
| 2026-05-07 10:53 | 35.45821 | -84.88620 | 39966 ft | 436 kts | 332° |
| 2026-05-07 10:54 | 35.51764 | -84.90120 | 39961 ft | 436 kts | 332° |
| 2026-05-07 10:54 | 35.57713 | -84.91623 | 39964 ft | 437 kts | 332° |
| 2026-05-07 10:55 | 35.63666 | -84.93130 | 39956 ft | 437 kts | 332° |
| 2026-05-07 10:55 | 35.69620 | -84.94640 | 39981 ft | 438 kts | 332° |
| 2026-05-07 10:56 | 35.75590 | -84.96156 | 39974 ft | 438 kts | 332° |
| 2026-05-07 10:56 | 35.81517 | -84.97661 | 39983 ft | 437 kts | 331° |
| 2026-05-07 10:57 | 35.87468 | -84.99176 | 39998 ft | 437 kts | 332° |
| 2026-05-07 10:57 | 35.93428 | -85.00699 | 40014 ft | 438 kts | 332° |
| 2026-05-07 10:58 | 35.99396 | -85.02226 | 40016 ft | 439 kts | 332° |
| 2026-05-07 10:58 | 36.05385 | -85.03759 | 40010 ft | 440 kts | 332° |
| 2026-05-07 10:59 | 36.11384 | -85.05296 | 40023 ft | 441 kts | 332° |
| 2026-05-07 10:59 | 36.17389 | -85.06838 | 40044 ft | 442 kts | 332° |
| 2026-05-07 11:00 | 36.23407 | -85.08384 | 40008 ft | 441 kts | 332° |
| 2026-05-07 11:00 | 36.29409 | -85.09926 | 40012 ft | 439 kts | 332° |
| 2026-05-07 11:01 | 36.35386 | -85.11466 | 40018 ft | 438 kts | 332° |
| 2026-05-07 11:01 | 36.41352 | -85.13008 | 40092 ft | 437 kts | 332° |
| 2026-05-07 11:02 | 36.47271 | -85.14531 | 40025 ft | 429 kts | 331° |
| 2026-05-07 11:02 | 36.53058 | -85.16022 | 40029 ft | 424 kts | 331° |
| 2026-05-07 11:03 | 36.58847 | -85.17537 | 40037 ft | 425 kts | 331° |
| 2026-05-07 11:03 | 36.64645 | -85.19052 | 40039 ft | 426 kts | 331° |
| 2026-05-07 11:04 | 36.70443 | -85.20566 | 40053 ft | 428 kts | 330° |
| 2026-05-07 11:04 | 36.76276 | -85.22085 | 40050 ft | 428 kts | 330° |
| 2026-05-07 11:05 | 36.82106 | -85.23605 | 40043 ft | 428 kts | 330° |
| 2026-05-07 11:05 | 36.87889 | -85.25116 | 40048 ft | 427 kts | 330° |
| 2026-05-07 11:06 | 36.93698 | -85.26637 | 40061 ft | 427 kts | 330° |
| 2026-05-07 11:06 | 36.99506 | -85.28161 | 40068 ft | 426 kts | 330° |
| 2026-05-07 11:07 | 37.05309 | -85.29686 | 40058 ft | 426 kts | 330° |
| 2026-05-07 11:07 | 37.11102 | -85.31210 | 40066 ft | 425 kts | 330° |
| 2026-05-07 11:08 | 37.16891 | -85.32737 | 40102 ft | 426 kts | 330° |
| 2026-05-07 11:08 | 37.22682 | -85.34268 | 40072 ft | 426 kts | 330° |
| 2026-05-07 11:09 | 37.28487 | -85.35801 | 40071 ft | 425 kts | 330° |
| 2026-05-07 11:09 | 37.34269 | -85.37332 | 40063 ft | 425 kts | 330° |
| 2026-05-07 11:10 | 37.40058 | -85.38867 | 40132 ft | 425 kts | 330° |
| 2026-05-07 11:10 | 37.45846 | -85.40408 | 40072 ft | 426 kts | 329° |
| 2026-05-07 11:11 | 37.51649 | -85.41951 | 40064 ft | 426 kts | 329° |
| 2026-05-07 11:11 | 37.57445 | -85.43495 | 40067 ft | 426 kts | 329° |
| 2026-05-07 11:12 | 37.63236 | -85.45040 | 40114 ft | 425 kts | 329° |
| 2026-05-07 11:12 | 37.69029 | -85.46590 | 40075 ft | 425 kts | 329° |
| 2026-05-07 11:13 | 37.74807 | -85.48137 | 40064 ft | 425 kts | 329° |
| 2026-05-07 11:13 | 37.80584 | -85.49686 | 40060 ft | 424 kts | 329° |
| 2026-05-07 11:14 | 37.86346 | -85.51233 | 40068 ft | 423 kts | 329° |
| 2026-05-07 11:14 | 37.92068 | -85.52776 | 40076 ft | 424 kts | 329° |
| 2026-05-07 11:15 | 37.97845 | -85.54337 | 39682 ft | 428 kts | 329° |
| 2026-05-07 11:15 | 38.00746 | -85.55118 | 39188 ft | 425 kts | 328° |
| 2026-05-07 11:15 | 38.03627 | -85.55890 | 38617 ft | 425 kts | 328° |
| 2026-05-07 11:16 | 38.06535 | -85.56633 | 37896 ft | 423 kts | 328° |
| 2026-05-07 11:16 | 38.09393 | -85.57416 | 37256 ft | 419 kts | 327° |
| 2026-05-07 11:16 | 38.12283 | -85.58121 | 36650 ft | 429 kts | 331° |
| 2026-05-07 11:16 | 38.15277 | -85.58592 | 35940 ft | 436 kts | 333° |
| 2026-05-07 11:17 | 38.18298 | -85.59005 | 35179 ft | 438 kts | 333° |
| 2026-05-07 11:17 | 38.21325 | -85.59413 | 34629 ft | 436 kts | 333° |
| 2026-05-07 11:17 | 38.24335 | -85.59829 | 34066 ft | 433 kts | 333° |
| 2026-05-07 11:17 | 38.27314 | -85.60253 | 33467 ft | 429 kts | 332° |
| 2026-05-07 11:18 | 38.30191 | -85.60670 | 32945 ft | 425 kts | 332° |
| 2026-05-07 11:18 | 38.33017 | -85.61083 | 32434 ft | 421 kts | 332° |
| 2026-05-07 11:18 | 38.35914 | -85.61506 | 31931 ft | 418 kts | 333° |
| 2026-05-07 11:18 | 38.38811 | -85.61915 | 31428 ft | 416 kts | 333° |
| 2026-05-07 11:19 | 38.41659 | -85.62352 | 30883 ft | 408 kts | 331° |
| 2026-05-07 11:19 | 38.44484 | -85.62839 | 30331 ft | 410 kts | 333° |
| 2026-05-07 11:19 | 38.47322 | -85.63269 | 29824 ft | 409 kts | 333° |
| 2026-05-07 11:19 | 38.50132 | -85.63675 | 29291 ft | 404 kts | 333° |
| 2026-05-07 11:20 | 38.52903 | -85.64082 | 28756 ft | 400 kts | 333° |
| 2026-05-07 11:20 | 38.55648 | -85.64496 | 28257 ft | 395 kts | 333° |
| 2026-05-07 11:20 | 38.58372 | -85.64911 | 27842 ft | 391 kts | 334° |
| 2026-05-07 11:20 | 38.61074 | -85.65314 | 27268 ft | 390 kts | 334° |
| 2026-05-07 11:21 | 38.63758 | -85.65707 | 26754 ft | 387 kts | 335° |
| 2026-05-07 11:21 | 38.66428 | -85.66096 | 26244 ft | 384 kts | 335° |
| 2026-05-07 11:21 | 38.69072 | -85.66481 | 25761 ft | 382 kts | 336° |
| 2026-05-07 11:21 | 38.71705 | -85.66868 | 25241 ft | 380 kts | 336° |
| 2026-05-07 11:22 | 38.74285 | -85.67249 | 24728 ft | 378 kts | 336° |
| 2026-05-07 11:22 | 38.76899 | -85.67635 | 24212 ft | 377 kts | 337° |
| 2026-05-07 11:22 | 38.79495 | -85.68020 | 23693 ft | 375 kts | 338° |
| 2026-05-07 11:22 | 38.82086 | -85.68404 | 23135 ft | 374 kts | 340° |
| 2026-05-07 11:23 | 38.83837 | -85.68630 | 22748 ft | 373 kts | 340° |
| 2026-05-07 11:23 | 38.87208 | -85.69119 | 22032 ft | 365 kts | 338° |
| 2026-05-07 11:23 | 38.89725 | -85.69515 | 21513 ft | 363 kts | 339° |
| 2026-05-07 11:23 | 38.92220 | -85.69884 | 20998 ft | 358 kts | 340° |
| 2026-05-07 11:24 | 38.94683 | -85.70259 | 20494 ft | 355 kts | 340° |
| 2026-05-07 11:24 | 38.96338 | -85.70508 | 20152 ft | 353 kts | 340° |
| 2026-05-07 11:24 | 38.98764 | -85.70871 | 19657 ft | 350 kts | 340° |
| 2026-05-07 11:24 | 39.01169 | -85.71227 | 19164 ft | 346 kts | 341° |
| 2026-05-07 11:25 | 39.03508 | -85.71601 | 18764 ft | 340 kts | 340° |
| 2026-05-07 11:25 | 39.05836 | -85.72011 | 18397 ft | 336 kts | 339° |
| 2026-05-07 11:25 | 39.08149 | -85.72429 | 17928 ft | 334 kts | 339° |
| 2026-05-07 11:25 | 39.10442 | -85.72838 | 17470 ft | 332 kts | 340° |
| 2026-05-07 11:26 | 39.12724 | -85.73240 | 17062 ft | 329 kts | 341° |
| 2026-05-07 11:26 | 39.14979 | -85.73647 | 16665 ft | 323 kts | 339° |
| 2026-05-07 11:26 | 39.17043 | -85.74517 | 16282 ft | 305 kts | 326° |
| 2026-05-07 11:26 | 39.18954 | -85.75663 | 15950 ft | 301 kts | 325° |
| 2026-05-07 11:27 | 39.20850 | -85.76814 | 15607 ft | 303 kts | 326° |
| 2026-05-07 11:27 | 39.22772 | -85.77953 | 15259 ft | 305 kts | 327° |
| 2026-05-07 11:27 | 39.24718 | -85.79085 | 14907 ft | 307 kts | 328° |
| 2026-05-07 11:27 | 39.26668 | -85.80210 | 14550 ft | 307 kts | 329° |
| 2026-05-07 11:28 | 39.28618 | -85.81331 | 14205 ft | 307 kts | 329° |
| 2026-05-07 11:28 | 39.30566 | -85.82452 | 13843 ft | 306 kts | 330° |
| 2026-05-07 11:28 | 39.32502 | -85.83570 | 13431 ft | 305 kts | 329° |
| 2026-05-07 11:28 | 39.34270 | -85.84977 | 13064 ft | 293 kts | 317° |
| 2026-05-07 11:29 | 39.35829 | -85.86622 | 12722 ft | 287 kts | 315° |
| 2026-05-07 11:29 | 39.37359 | -85.88276 | 12387 ft | 287 kts | 316° |
| 2026-05-07 11:29 | 39.38890 | -85.89920 | 12050 ft | 287 kts | 316° |
| 2026-05-07 11:29 | 39.40442 | -85.91567 | 11716 ft | 288 kts | 317° |
| 2026-05-07 11:30 | 39.41993 | -85.93198 | 11382 ft | 288 kts | 317° |
| 2026-05-07 11:30 | 39.43535 | -85.94811 | 11041 ft | 281 kts | 317° |
| 2026-05-07 11:30 | 39.45038 | -85.96381 | 10718 ft | 274 kts | 317° |
| 2026-05-07 11:30 | 39.46497 | -85.97899 | 10409 ft | 268 kts | 318° |
| 2026-05-07 11:31 | 39.47973 | -85.99360 | 10110 ft | 264 kts | 319° |
| 2026-05-07 11:31 | 39.49437 | -86.00787 | 9790 ft | 263 kts | 320° |
| 2026-05-07 11:31 | 39.50897 | -86.02212 | 9462 ft | 262 kts | 320° |
| 2026-05-07 11:31 | 39.52346 | -86.03628 | 9159 ft | 258 kts | 320° |
| 2026-05-07 11:32 | 39.55163 | -86.06390 | 8549 ft | 251 kts | 320° |
| 2026-05-07 11:32 | 39.56550 | -86.07755 | 8261 ft | 250 kts | 320° |
| 2026-05-07 11:32 | 39.57931 | -86.09114 | 7972 ft | 248 kts | 320° |
| 2026-05-07 11:33 | 39.59303 | -86.10465 | 7687 ft | 247 kts | 320° |
| 2026-05-07 11:33 | 39.60577 | -86.11931 | 7381 ft | 243 kts | 314° |
| 2026-05-07 11:33 | 39.61740 | -86.13478 | 7105 ft | 239 kts | 313° |
| 2026-05-07 11:33 | 39.62885 | -86.15011 | 6823 ft | 234 kts | 313° |
| 2026-05-07 11:34 | 39.64017 | -86.16511 | 6551 ft | 231 kts | 314° |
| 2026-05-07 11:34 | 39.65182 | -86.17912 | 6259 ft | 228 kts | 327° |
| 2026-05-07 11:34 | 39.66660 | -86.18477 | 6070 ft | 225 kts | 356° |
| 2026-05-07 11:34 | 39.68162 | -86.18110 | 6019 ft | 218 kts | 19° |
| 2026-05-07 11:35 | 39.69386 | -86.17063 | 6002 ft | 205 kts | 39° |
| 2026-05-07 11:35 | 39.70359 | -86.15811 | 5979 ft | 188 kts | 39° |
| 2026-05-07 11:35 | 39.71274 | -86.14631 | 5998 ft | 183 kts | 39° |
| 2026-05-07 11:35 | 39.72178 | -86.13471 | 6001 ft | 183 kts | 39° |
| 2026-05-07 11:36 | 39.73084 | -86.12310 | 6018 ft | 183 kts | 39° |
| 2026-05-07 11:36 | 39.73993 | -86.11146 | 6017 ft | 184 kts | 39° |
| 2026-05-07 11:36 | 39.74910 | -86.10004 | 5961 ft | 186 kts | 35° |
| 2026-05-07 11:36 | 39.75902 | -86.08923 | 5811 ft | 186 kts | 33° |
| 2026-05-07 11:37 | 39.76913 | -86.07916 | 5642 ft | 177 kts | 20° |
| 2026-05-07 11:37 | 39.78034 | -86.07811 | 5514 ft | 159 kts | 345° |
| 2026-05-07 11:37 | 39.79100 | -86.08024 | 5362 ft | 151 kts | 347° |
| 2026-05-07 11:37 | 39.80120 | -86.08199 | 5234 ft | 147 kts | 348° |
| 2026-05-07 11:38 | 39.81132 | -86.08363 | 5130 ft | 146 kts | 348° |
| 2026-05-07 11:38 | 39.82132 | -86.08518 | 5012 ft | 144 kts | 348° |
| 2026-05-07 11:38 | 39.83119 | -86.08666 | 4896 ft | 142 kts | 348° |
| 2026-05-07 11:38 | 39.84097 | -86.08811 | 4785 ft | 140 kts | 348° |
| 2026-05-07 11:39 | 39.85061 | -86.08951 | 4675 ft | 139 kts | 348° |
| 2026-05-07 11:39 | 39.86016 | -86.09137 | 4568 ft | 140 kts | 337° |
| 2026-05-07 11:39 | 39.86723 | -86.09940 | 4467 ft | 139 kts | 296° |
| 2026-05-07 11:39 | 39.86777 | -86.11203 | 4355 ft | 148 kts | 255° |
| 2026-05-07 11:40 | 39.86092 | -86.12250 | 4257 ft | 156 kts | 230° |
| 2026-05-07 11:40 | 39.85326 | -86.13263 | 4116 ft | 158 kts | 232° |
| 2026-05-07 11:40 | 39.84584 | -86.14242 | 4063 ft | 146 kts | 232° |
| 2026-05-07 11:40 | 39.83859 | -86.15183 | 3913 ft | 148 kts | 232° |
| 2026-05-07 11:41 | 39.83141 | -86.16105 | 3731 ft | 145 kts | 232° |
| 2026-05-07 11:41 | 39.82434 | -86.17008 | 3574 ft | 140 kts | 232° |
| 2026-05-07 11:41 | 39.81767 | -86.17860 | 3390 ft | 130 kts | 232° |
| 2026-05-07 11:41 | 39.81134 | -86.18669 | 3191 ft | 125 kts | 231° |
| 2026-05-07 11:42 | 39.80502 | -86.19480 | 3026 ft | 130 kts | 231° |
| 2026-05-07 11:42 | 39.79852 | -86.20311 | 2837 ft | 131 kts | 231° |
| 2026-05-07 11:42 | 39.79206 | -86.21136 | 2652 ft | 130 kts | 231° |
| 2026-05-07 11:42 | 39.78561 | -86.21961 | 2475 ft | 130 kts | 230° |
| 2026-05-07 11:43 | 39.77913 | -86.22789 | 2294 ft | 130 kts | 230° |
| 2026-05-07 11:43 | 39.77266 | -86.23615 | 2121 ft | 130 kts | 230° |
| 2026-05-07 11:43 | 39.76621 | -86.24440 | 1935 ft | 130 kts | 229° |
| 2026-05-07 11:43 | 39.75984 | -86.25255 | 1741 ft | 130 kts | 229° |
| 2026-05-07 11:44 | 39.75333 | -86.26086 | 1539 ft | 128 kts | 227° |
| 2026-05-07 11:44 | 39.74702 | -86.26894 | 1357 ft | 127 kts | 226° |
| 2026-05-07 11:44 | 39.74084 | -86.27683 | 1176 ft | 127 kts | 226° |
| 2026-05-07 11:44 | 39.73451 | -86.28490 | 1014 ft | 128 kts | 226° |
| 2026-05-07 11:45 | 39.72821 | -86.29300 | 844 ft | 127 kts | 225° |
| 2026-05-07 11:45 | 39.72221 | -86.30069 | 779 ft | 105 kts | 224° |
| 2026-05-07 11:45 | 39.71854 | -86.30532 | 775 ft | 42 kts | 224° |
| 2026-05-07 11:45 | 39.71713 | -86.30713 | 778 ft | 26 kts | 225° |
| 2026-05-07 11:46 | 39.71588 | -86.30870 | 779 ft | 24 kts | 224° |
| 2026-05-07 11:46 | 39.71486 | -86.31002 | 780 ft | 16 kts | 225° |
| 2026-05-07 11:46 | 39.71456 | -86.31066 | 778 ft | 7 kts | 254° |
| 2026-05-07 11:46 | 39.71466 | -86.31129 | 777 ft | 7 kts | 306° |
| 2026-05-07 11:47 | 39.71500 | -86.31177 | 778 ft | 7 kts | 315° |
| 2026-05-07 11:47 | 39.71540 | -86.31224 | 778 ft | 8 kts | 334° |
| 2026-05-07 11:47 | 39.71588 | -86.31194 | 779 ft | 8 kts | 39° |
| 2026-05-07 11:47 | 39.71629 | -86.31143 | 781 ft | 8 kts | 45° |
| 2026-05-07 11:48 | 39.71673 | -86.31087 | 781 ft | 10 kts | 44° |
| 2026-05-07 11:48 | 39.71730 | -86.31013 | 779 ft | 14 kts | 45° |
| 2026-05-07 11:48 | 39.71807 | -86.30918 | 778 ft | 17 kts | 44° |
| 2026-05-07 11:48 | 39.71894 | -86.30807 | 777 ft | 18 kts | 44° |
| 2026-05-07 11:49 | 39.71987 | -86.30687 | 776 ft | 19 kts | 44° |
| 2026-05-07 11:49 | 39.72078 | -86.30570 | 777 ft | 18 kts | 46° |
| 2026-05-07 11:49 | 39.72156 | -86.30468 | 778 ft | 9 kts | 55° |
| 2026-05-07 11:49 | 39.72149 | -86.30397 | 778 ft | 9 kts | 138° |
| 2026-05-07 11:50 | 39.72092 | -86.30359 | 776 ft | 10 kts | 146° |
| 2026-05-07 11:50 | 39.72040 | -86.30302 | 776 ft | 10 kts | 136° |
| 2026-05-07 11:50 | 39.71995 | -86.30240 | 777 ft | 9 kts | 127° |
| 2026-05-07 11:50 | 39.71974 | -86.30163 | 778 ft | 9 kts | 99° |
| 2026-05-07 11:51 | 39.71958 | -86.30086 | 779 ft | 9 kts | 123° |
| 2026-05-07 11:51 | 39.71917 | -86.30027 | 780 ft | 9 kts | 134° |
| 2026-05-07 11:51 | 39.71876 | -86.29972 | 782 ft | 8 kts | 133° |
| 2026-05-07 11:51 | 39.71861 | -86.29905 | 784 ft | 8 kts | 70° |
| 2026-05-07 11:52 | 39.71901 | -86.29856 | 784 ft | 8 kts | 38° |
| 2026-05-07 11:52 | 39.71943 | -86.29812 | 784 ft | 8 kts | 39° |
| 2026-05-07 11:52 | 39.71985 | -86.29768 | 783 ft | 7 kts | 38° |
| 2026-05-07 11:52 | 39.72019 | -86.29721 | 784 ft | 7 kts | 64° |
| 2026-05-07 11:53 | 39.72010 | -86.29662 | 785 ft | 7 kts | 125° |
| 2026-05-07 11:53 | 39.71981 | -86.29612 | 785 ft | 7 kts | 128° |
| 2026-05-07 11:53 | 39.71951 | -86.29565 | 785 ft | 7 kts | 130° |
| 2026-05-07 11:53 | 39.71920 | -86.29519 | 786 ft | 7 kts | 130° |
| 2026-05-07 11:54 | 39.71891 | -86.29473 | 786 ft | 6 kts | 129° |
| 2026-05-07 11:54 | 39.71862 | -86.29426 | 786 ft | 8 kts | 129° |
| 2026-05-07 11:54 | 39.71820 | -86.29360 | 786 ft | 11 kts | 130° |
| 2026-05-07 11:54 | 39.71747 | -86.29281 | 785 ft | 16 kts | 143° |
| 2026-05-07 11:55 | 39.71660 | -86.29186 | 785 ft | 14 kts | 140° |
| 2026-05-07 11:55 | 39.71606 | -86.29127 | 783 ft | 10 kts | 141° |
| 2026-05-07 11:55 | 39.71543 | -86.29108 | 782 ft | 10 kts | 198° |
| 2026-05-07 11:55 | 39.71497 | -86.29168 | 782 ft | 10 kts | 230° |
| 2026-05-07 11:56 | 39.71456 | -86.29233 | 782 ft | 9 kts | 230° |
| 2026-05-07 11:56 | 39.71436 | -86.29263 | 782 ft | 1 kts | 229° |
| 2026-05-07 11:56 | 39.71428 | -86.29272 | 782 ft | 3 kts | 217° |
| 2026-05-07 11:56 | 39.71397 | -86.29284 | 782 ft | 7 kts | 166° |
| 2026-05-07 11:57 | 39.71379 | -86.29270 | 781 ft | 2 kts | 141° |
| 2026-05-07 11:57 | 39.71370 | -86.29259 | 781 ft | 1 kts | 139° |
| 2026-05-07 11:57 | 39.71365 | -86.29253 | 781 ft | 1 kts | 138° |
| 2026-05-07 11:57 | 39.71362 | -86.29249 | 781 ft | 0 kts | 138° |